Aérodrome :
LOGIN :

S'inscrire | Disclaimer

   EN    FR    IT 

 










Légende :    VFR   VFR Marginal   IFR   IFR Intensif   IFR Très Intensif
Visi : 
Plafond : 
>= 8 km
>= 3000ft
5 à 8 km
1000 à 3000 ft
1500m à 5 km
500 à 1000 ft
800 à 1500m
200 à 500 ft
< 800m
< 200 ft
Symboles :   Orages  Brouillard  Fortes neiges  Fortes précipitations  Vent > 20 kt
SIGMETs :   Divers  Orages  Givrage  Turbulence  Onde Orograph.  Cendres Volcan.






- Altitude de l'aérodrome : 616 ft
- Code IATA : PUF


LFBP - Pau

DERNIER METAR :
  • 151230Z AUTO 21007KT 9999 FEW019/// BKN025/// BKN032/// ///TCU 07/06 Q0999 TEMPO 3000 SHRA BKN004 SCT020CB BKN025TCU

METARs EXPIRÉS :
  • 151200Z AUTO 21006KT 9999 -RADZ FEW021/// BKN028/// BKN033/// ///CB 07/05 Q0999 TEMPO 3000 SHRA BKN004 SCT020CB BKN025TCU
  • 151130Z AUTO 20005KT 170V230 9000 -RA FEW015/// BKN028/// BKN033/// ///CB 06/05 Q0999
  • 151100Z AUTO 25004KT 9999 -SNRA BKN028/// OVC036/// ///CB 06/05 Q0999 TEMPO 4000 SHRA BKN004 SCT020CB BKN025TCU
  • 151030Z AUTO 24009KT 210V270 3200 +SNRA BR SCT019/// OVC025/// ///CB 06/04 Q0999 TEMPO SHRA BKN004 SCT020CB BKN025TCU
  • 151000Z AUTO VRB03KT 6000 2900 -RA FEW021/// BKN028/// OVC036/// ///CB 06/05 Q0998 TEMPO 4000 SHRA BKN004 SCT020CB BKN025TCU
  • 150930Z AUTO 20006KT 180V240 6000 RA BKN028/// BKN035/// OVC041/// ///CB 06/04 Q0998 TEMPO 4000 SHRA BKN004 SCT020CB BKN025TCU

TAF TAF LFBP
Valide du 15 à 12h jusqu'au 16 à 12h UTC


151100Z 1512/1612 22005KT 9999 BKN050
TEMPO 1512/1516 3000 SHRA BKN004 SCT020CB BKN025TCU
PROB30
TEMPO 1604/1610 3000 -SHRA BKN030
TEMPO 1610/1612 26015G25KT 3000 +RA SCT015CB BKN020TCU



MET'MAP, la Météo Aéronautique d'un coup d'oeil ! - Copyright ORBIFLY Décembre 2007 - Disclaimer

ORBIFLY MET'MAP TEAM :

Programmation & Développement : Alexandra Zaïnal
Conception & Développement : Baudouin d'Aumeries
Co-Programmation & Développement : Marc-Olivier Méhu
Soutien technique & logistique : Manuel Goepfert

Contact : metmap@orbifly.com




SOURCES & CREDITS :

   NOAA